createdAt,value
2023-05-19T00:01:14.487Z,99086.16
2023-05-19T00:03:50.886Z,99081.78
2023-05-19T00:06:20.574Z,99084.84
2023-05-19T00:08:48.381Z,99083.81
2023-05-19T00:11:15.744Z,99087.53
2023-05-19T00:13:43.005Z,99078.78
2023-05-19T00:16:11.320Z,99078.41
2023-05-19T00:18:38.484Z,99080.47
2023-05-19T00:21:07.234Z,99080.09
2023-05-19T00:23:34.327Z,99091.09
2023-05-19T00:26:01.437Z,99095.25
2023-05-19T00:28:28.528Z,99090.06
2023-05-19T00:30:56.376Z,99088.38
2023-05-19T00:33:23.506Z,99091.75
2023-05-19T00:35:50.609Z,99088.56
2023-05-19T00:38:19.342Z,99086.34
2023-05-19T00:40:46.530Z,99095.47
2023-05-19T00:43:13.794Z,99092.94
2023-05-19T00:45:41.136Z,99090.72
2023-05-19T00:48:08.708Z,99098.09
2023-05-19T00:50:36.357Z,99095.19
2023-05-19T00:53:04.180Z,99095.56
2023-05-19T00:55:33.713Z,99091.84
2023-05-19T00:58:01.726Z,99091.84
2023-05-19T01:00:30.375Z,99097.06
2023-05-19T01:02:58.120Z,99095.44
2023-05-19T01:05:26.160Z,99096.09
2023-05-19T01:07:54.117Z,99096.66
2023-05-19T01:10:21.261Z,99099.25
2023-05-19T01:12:50.037Z,99093.06
2023-05-19T01:15:17.183Z,99088.22
2023-05-19T01:17:48.754Z,99089.63
2023-05-19T01:20:20.589Z,99088.78
2023-05-19T01:23:07.238Z,99083.75
2023-05-19T01:25:46.298Z,99085.97
2023-05-19T01:28:25.316Z,99093.53
2023-05-19T01:30:55.878Z,99099.28
2023-05-19T01:33:23.921Z,99091.19
2023-05-19T01:35:51.532Z,99095.19
2023-05-19T01:38:19.533Z,99097.72
2023-05-19T01:40:49.774Z,99088.91
2023-05-19T01:43:18.008Z,99093.81
2023-05-19T01:45:45.276Z,99094.66
2023-05-19T01:48:14.814Z,99104.78
2023-05-19T01:50:42.192Z,99091.13
2023-05-19T01:53:09.697Z,99095.50
2023-05-19T01:55:41.934Z,99092.16
2023-05-19T01:58:12.887Z,99106.22
2023-05-19T02:00:44.432Z,99099.81
2023-05-19T02:03:18.605Z,99098.94
2023-05-19T02:05:52.600Z,99091.00
2023-05-19T02:08:24.793Z,99088.28
2023-05-19T02:10:55.491Z,99096.81
2023-05-19T02:13:24.698Z,99093.97
2023-05-19T02:15:54.687Z,99099.34
2023-05-19T02:18:23.667Z,99098.72
2023-05-19T02:20:51.287Z,99098.06
2023-05-19T02:23:18.397Z,99098.88
2023-05-19T02:25:45.571Z,99097.22
2023-05-19T02:28:12.691Z,99095.63
2023-05-19T02:30:39.888Z,99099.84
2023-05-19T02:33:07.016Z,99096.28
2023-05-19T02:35:35.746Z,99101.50
2023-05-19T02:38:03.014Z,99100.84
2023-05-19T02:40:30.422Z,99096.28
2023-05-19T02:42:57.800Z,99092.75
2023-05-19T02:45:24.996Z,99097.50
2023-05-19T02:47:52.265Z,99100.50
2023-05-19T02:50:19.450Z,99099.69
2023-05-19T02:52:48.054Z,99092.28
2023-05-19T02:55:15.210Z,99097.97
2023-05-19T02:57:42.355Z,99096.47
2023-05-19T03:00:10.556Z,99093.47
2023-05-19T03:02:37.797Z,99098.41
2023-05-19T03:05:05.447Z,99094.84
2023-05-19T03:07:32.588Z,99099.94
2023-05-19T03:10:01.374Z,99102.34
2023-05-19T03:12:28.539Z,99096.09
2023-05-19T03:14:56.966Z,99103.41
2023-05-19T03:17:24.146Z,99109.78
2023-05-19T03:19:51.290Z,99112.50
2023-05-19T03:22:18.961Z,99103.28
2023-05-19T03:24:46.056Z,99103.03
2023-05-19T03:27:14.641Z,99105.81
2023-05-19T03:29:41.776Z,99097.19
2023-05-19T03:32:08.985Z,99099.19
2023-05-19T03:34:36.797Z,99103.38
2023-05-19T03:37:04.263Z,99104.78
2023-05-19T03:39:31.434Z,99103.63
2023-05-19T03:41:58.551Z,99097.81
2023-05-19T03:44:27.645Z,99090.56
2023-05-19T03:46:54.828Z,99097.44
2023-05-19T03:50:00.327Z,99087.44
2023-05-19T03:53:02.667Z,99092.03
2023-05-19T03:55:33.211Z,99087.50
2023-05-19T03:58:00.343Z,99082.75
2023-05-19T04:00:29.065Z,99089.22
2023-05-19T04:02:56.295Z,99097.03
2023-05-19T04:05:23.563Z,99097.22
2023-05-19T04:07:50.748Z,99085.69
2023-05-19T04:10:17.934Z,99086.28
2023-05-19T04:12:45.226Z,99080.91
2023-05-19T04:15:12.512Z,99084.75
2023-05-19T04:17:42.231Z,99082.91
2023-05-19T04:20:10.516Z,99086.00
2023-05-19T04:22:37.641Z,99081.50
2023-05-19T04:25:05.073Z,99087.47
2023-05-19T04:27:32.849Z,99090.78
2023-05-19T04:30:00.567Z,99083.53
2023-05-19T04:32:27.767Z,99093.06
2023-05-19T04:34:57.340Z,99090.69
2023-05-19T04:37:26.270Z,99085.69
2023-05-19T04:39:54.394Z,99083.88
2023-05-19T04:42:24.421Z,99083.88
2023-05-19T04:44:51.911Z,99082.88
2023-05-19T04:47:20.344Z,99085.06
2023-05-19T04:49:48.425Z,99085.72
2023-05-19T04:52:17.162Z,99095.00
2023-05-19T04:54:44.747Z,99091.28
2023-05-19T04:57:13.728Z,99088.75
2023-05-19T04:59:40.846Z,99085.72
2023-05-19T05:02:09.058Z,99087.03
2023-05-19T05:04:37.783Z,99082.78
2023-05-19T05:07:05.146Z,99080.13
2023-05-19T05:09:34.713Z,99078.66
2023-05-19T05:12:03.279Z,99069.44
2023-05-19T05:14:30.879Z,99089.94
2023-05-19T05:16:58.330Z,99080.84
2023-05-19T05:19:26.581Z,99074.16
2023-05-19T05:21:54.780Z,99068.19
2023-05-19T05:24:22.429Z,99063.19
2023-05-19T05:26:55.859Z,99062.88
2023-05-19T05:29:23.641Z,99067.41
2023-05-19T05:31:50.988Z,99063.72
2023-05-19T05:34:18.816Z,99072.13
2023-05-19T05:36:46.549Z,99074.47
2023-05-19T05:39:13.818Z,99075.66
2023-05-19T05:41:42.970Z,99071.47
2023-05-19T05:44:13.543Z,99064.38
2023-05-19T05:46:44.032Z,99065.34
2023-05-19T05:49:11.990Z,99074.28
2023-05-19T05:51:42.905Z,99057.47
2023-05-19T05:54:12.828Z,99069.47
2023-05-19T05:56:45.334Z,99056.59
2023-05-19T05:59:14.896Z,99064.53
2023-05-19T06:01:42.187Z,99068.69
2023-05-19T06:04:09.817Z,99065.09
2023-05-19T06:06:37.110Z,99059.84
2023-05-19T06:09:05.295Z,99059.22
2023-05-19T06:11:33.004Z,99065.53
2023-05-19T06:14:00.493Z,99061.66
2023-05-19T06:16:48.041Z,99050.59
2023-05-19T06:19:17.234Z,99060.59
2023-05-19T06:21:45.079Z,99054.81
2023-05-19T06:24:12.585Z,99059.25
2023-05-19T06:26:39.783Z,99049.25
2023-05-19T06:29:07.297Z,99051.09
2023-05-19T06:31:34.603Z,99044.59
2023-05-19T06:34:15.434Z,99046.75
2023-05-19T06:36:42.582Z,99049.47
2023-05-19T06:39:10.593Z,99040.13
2023-05-19T06:41:37.936Z,99042.84
2023-05-19T06:44:07.486Z,99043.53
2023-05-19T06:46:35.047Z,99042.84
2023-05-19T06:49:02.233Z,99042.19
2023-05-19T06:51:34.899Z,99035.34
2023-05-19T06:54:02.060Z,99029.22
2023-05-19T06:56:29.302Z,99015.41
2023-05-19T06:58:56.562Z,99014.50
2023-05-19T07:01:30.150Z,99024.22
2023-05-19T07:03:58.740Z,99019.34
2023-05-19T07:06:25.944Z,99025.09
2023-05-19T07:08:55.154Z,99027.56
2023-05-19T07:11:22.879Z,99019.25
2023-05-19T07:13:50.188Z,99012.81
2023-05-19T07:16:23.533Z,99014.09
2023-05-19T07:18:50.692Z,99011.94
2023-05-19T07:21:18.077Z,99010.66
2023-05-19T07:23:46.957Z,99013.22
2023-05-19T07:26:15.705Z,99013.19
2023-05-19T07:28:42.880Z,99004.81
2023-05-19T07:31:10.138Z,99009.03
2023-05-19T07:33:37.324Z,99006.75
2023-05-19T07:36:05.073Z,99004.84
2023-05-19T07:38:32.305Z,98998.81
2023-05-19T07:40:59.540Z,98999.50
2023-05-19T07:43:28.897Z,99003.06
2023-05-19T07:45:57.409Z,98990.91
2023-05-19T07:48:25.332Z,98997.34
2023-05-19T07:50:52.927Z,98992.06
2023-05-19T07:53:20.578Z,99002.03
2023-05-19T07:55:47.738Z,98992.44
2023-05-19T07:58:14.942Z,98991.97
2023-05-19T08:00:43.466Z,98991.72
2023-05-19T08:03:10.851Z,98989.75
2023-05-19T08:05:38.116Z,98984.22
2023-05-19T08:08:05.483Z,98980.66
2023-05-19T08:10:33.342Z,98988.31
2023-05-19T08:13:00.829Z,98985.66
2023-05-19T08:15:28.825Z,98976.00
2023-05-19T08:17:57.549Z,98975.84
2023-05-19T08:20:24.893Z,98969.91
2023-05-19T08:22:52.542Z,98971.56
2023-05-19T08:25:19.876Z,98968.75
2023-05-19T08:27:47.033Z,98971.28
2023-05-19T08:30:14.260Z,98967.91
2023-05-19T08:32:41.389Z,98965.34
2023-05-19T08:35:10.736Z,98960.97
2023-05-19T08:37:38.274Z,98960.63
2023-05-19T08:40:06.255Z,98955.75
2023-05-19T08:42:33.463Z,98958.31
2023-05-19T08:45:00.981Z,98961.66
2023-05-19T08:47:29.051Z,98959.78
2023-05-19T08:50:00.704Z,98966.09
2023-05-19T08:52:33.111Z,98968.19
2023-05-19T08:55:09.489Z,98965.66
2023-05-19T08:57:36.958Z,98965.41
2023-05-19T09:00:04.481Z,98968.91
2023-05-19T09:02:32.833Z,98963.69
2023-05-19T09:05:02.156Z,98959.66
2023-05-19T09:07:31.594Z,98965.34
2023-05-19T09:09:58.931Z,98962.75
2023-05-19T09:12:26.551Z,98966.19
2023-05-19T09:14:53.753Z,98961.53
2023-05-19T09:17:21.635Z,98962.47
2023-05-19T09:19:48.968Z,98961.75
2023-05-19T09:22:16.692Z,98960.09
2023-05-19T09:24:45.654Z,98957.69
2023-05-19T09:27:14.874Z,98947.06
2023-05-19T09:29:42.308Z,98951.56
2023-05-19T09:32:09.420Z,98953.84
2023-05-19T09:34:40.308Z,98949.78
2023-05-19T09:37:08.024Z,98943.66
2023-05-19T09:39:35.139Z,98952.97
2023-05-19T09:42:04.724Z,98950.28
2023-05-19T09:44:32.079Z,98952.88
2023-05-19T09:46:59.199Z,98939.34
2023-05-19T09:49:26.997Z,98946.13
2023-05-19T09:51:54.490Z,98942.25
2023-05-19T09:54:22.430Z,98934.75
2023-05-19T09:56:56.679Z,98929.44
2023-05-19T09:59:26.090Z,98936.50
2023-05-19T10:01:54.767Z,98941.25
2023-05-19T10:04:23.584Z,98941.53
2023-05-19T10:06:51.189Z,98939.94
2023-05-19T10:09:19.027Z,98939.41
2023-05-19T10:11:46.445Z,98940.16
2023-05-19T10:14:14.465Z,98936.81
2023-05-19T10:16:44.875Z,98936.41
2023-05-19T10:19:13.106Z,98918.38
2023-05-19T10:21:40.302Z,98921.38
2023-05-19T10:24:07.496Z,98925.09
2023-05-19T10:26:36.866Z,98926.56
2023-05-19T10:29:05.240Z,98922.00
2023-05-19T10:31:34.396Z,98921.28
2023-05-19T10:34:10.263Z,98915.59
2023-05-19T10:36:44.323Z,98918.34
2023-05-19T10:39:17.061Z,98915.91
2023-05-19T10:41:49.047Z,98922.22
2023-05-19T10:44:20.804Z,98906.31
2023-05-19T10:46:48.217Z,98912.09
2023-05-19T10:49:21.791Z,98910.84
2023-05-19T10:51:49.330Z,98915.47
2023-05-19T10:54:16.616Z,98913.09
2023-05-19T10:56:44.351Z,98910.97
2023-05-19T10:59:30.712Z,98910.75
2023-05-19T11:01:58.201Z,98909.28
2023-05-19T11:04:45.532Z,98904.63
2023-05-19T11:07:15.929Z,98907.88
2023-05-19T11:09:43.151Z,98907.03
2023-05-19T11:12:10.592Z,98899.63
2023-05-19T11:14:38.459Z,98905.66
2023-05-19T11:17:13.175Z,98901.78
2023-05-19T11:19:52.469Z,98906.47
2023-05-19T11:22:23.254Z,98896.72
2023-05-19T11:24:50.904Z,98894.41
2023-05-19T11:27:21.558Z,98900.84
2023-05-19T11:29:49.127Z,98898.41
2023-05-19T11:32:16.524Z,98879.91
2023-05-19T11:34:45.887Z,98888.16
2023-05-19T11:37:13.058Z,98885.13
2023-05-19T11:39:40.887Z,98890.31
2023-05-19T11:42:09.144Z,98890.91
2023-05-19T11:44:36.388Z,98898.06
2023-05-19T11:47:03.548Z,98894.50
2023-05-19T11:49:30.984Z,98891.53
2023-05-19T11:52:00.304Z,98887.69
2023-05-19T11:54:29.838Z,98892.81
2023-05-19T11:57:00.237Z,98887.44
2023-05-19T11:59:31.748Z,98887.53
2023-05-19T12:02:03.686Z,98881.19
2023-05-19T12:04:31.039Z,98886.31
2023-05-19T12:06:59.737Z,98887.63
2023-05-19T12:09:28.602Z,98883.91
2023-05-19T12:11:56.018Z,98881.09
2023-05-19T12:14:23.472Z,98882.78
2023-05-19T12:16:51.299Z,98874.78
2023-05-19T12:19:19.074Z,98887.34
2023-05-19T12:21:47.114Z,98881.38
2023-05-19T12:24:16.304Z,98881.03
2023-05-19T12:26:43.919Z,98880.28
2023-05-19T12:29:13.123Z,98873.31
2023-05-19T12:31:40.450Z,98877.09
2023-05-19T12:34:08.270Z,98874.03
2023-05-19T12:36:35.509Z,98873.88
2023-05-19T12:39:04.892Z,98878.03
2023-05-19T12:41:34.369Z,98884.63
2023-05-19T12:44:01.571Z,98877.78
2023-05-19T12:46:33.343Z,98880.66
2023-05-19T12:49:00.616Z,98879.91
2023-05-19T12:51:28.230Z,98881.97
2023-05-19T12:53:55.497Z,98875.16
2023-05-19T12:56:25.531Z,98882.88
2023-05-19T12:58:55.409Z,98877.41
2023-05-19T13:01:22.874Z,98889.09
2023-05-19T13:03:50.380Z,98889.75
2023-05-19T13:06:17.807Z,98895.44
2023-05-19T13:08:46.856Z,98889.00
2023-05-19T13:11:14.122Z,98898.06
2023-05-19T13:13:41.325Z,98897.84
2023-05-19T13:16:10.149Z,98896.00
2023-05-19T13:18:37.365Z,98901.00
2023-05-19T13:21:04.878Z,98903.53
2023-05-19T13:23:32.509Z,98907.34
2023-05-19T13:25:59.609Z,98903.16
2023-05-19T13:28:26.713Z,98904.47
2023-05-19T13:30:53.851Z,98909.09
2023-05-19T13:33:22.835Z,98914.03
2023-05-19T13:35:50.116Z,98914.03
2023-05-19T13:38:17.226Z,98914.22
2023-05-19T13:40:44.468Z,98919.53
2023-05-19T13:43:11.704Z,98913.38
2023-05-19T13:45:38.856Z,98909.16
2023-05-19T13:48:06.435Z,98920.91
2023-05-19T13:50:35.046Z,98928.59
2023-05-19T13:53:04.497Z,98926.09
2023-05-19T13:55:31.683Z,98923.03
2023-05-19T13:57:58.848Z,98923.13
2023-05-19T14:00:26.074Z,98926.94
2023-05-19T14:02:53.388Z,98928.34
2023-05-19T14:05:20.652Z,98925.91
2023-05-19T14:07:49.243Z,98928.91
2023-05-19T14:10:16.410Z,98933.28
2023-05-19T14:13:04.884Z,98925.75
2023-05-19T14:15:30.695Z,98925.19
2023-05-19T14:17:57.988Z,98929.66
2023-05-19T14:20:26.300Z,98930.19
2023-05-19T14:22:55.936Z,98934.66
2023-05-19T14:25:23.203Z,98930.66
2023-05-19T14:27:50.429Z,98930.00
2023-05-19T14:30:17.826Z,98927.94
2023-05-19T14:32:44.970Z,98931.50
2023-05-19T14:35:12.141Z,98935.00
2023-05-19T14:37:39.260Z,98930.88
2023-05-19T14:40:08.747Z,98930.19
2023-05-19T14:42:35.921Z,98924.97
2023-05-19T14:45:03.313Z,98935.72
2023-05-19T14:47:30.564Z,98937.84
2023-05-19T14:49:57.784Z,98942.88
2023-05-19T14:52:24.910Z,98941.13
2023-05-19T14:54:52.081Z,98939.59
2023-05-19T14:57:20.883Z,98934.69
2023-05-19T14:59:48.272Z,98931.69
2023-05-19T15:02:15.457Z,98939.63
2023-05-19T15:04:42.657Z,98932.00
2023-05-19T15:07:11.304Z,98933.38
2023-05-19T15:09:38.619Z,98934.88
2023-05-19T15:12:06.066Z,98930.97
2023-05-19T15:14:35.132Z,98937.00
2023-05-19T15:17:03.119Z,98932.06
2023-05-19T15:19:30.458Z,98934.88
2023-05-19T15:21:57.678Z,98930.41
2023-05-19T15:24:24.863Z,98924.44
2023-05-19T15:26:52.058Z,98928.78
2023-05-19T15:29:19.823Z,98924.91
2023-05-19T15:31:49.758Z,98934.00
2023-05-19T15:34:16.933Z,98935.28
2023-05-19T15:36:44.178Z,98933.81
2023-05-19T15:39:11.337Z,98938.16
2023-05-19T15:41:38.677Z,98943.09
2023-05-19T15:44:05.993Z,98935.59
2023-05-19T15:46:33.808Z,98944.56
2023-05-19T15:49:02.590Z,98940.06
2023-05-19T15:51:30.039Z,98940.50
2023-05-19T15:53:57.302Z,98943.56
2023-05-19T15:56:24.515Z,98950.72
2023-05-19T15:58:51.669Z,98943.06
2023-05-19T16:01:18.868Z,98947.25
2023-05-19T16:03:46.230Z,98950.78
2023-05-19T16:06:14.998Z,98952.72
2023-05-19T16:08:42.173Z,98950.66
2023-05-19T16:11:09.413Z,98952.94
2023-05-19T16:13:37.114Z,98947.72
2023-05-19T16:16:04.475Z,98957.28
2023-05-19T16:18:31.655Z,98955.94
2023-05-19T16:20:58.855Z,98951.88
2023-05-19T16:23:27.747Z,98962.00
2023-05-19T16:25:55.598Z,98959.88
2023-05-19T16:28:24.602Z,98957.44
2023-05-19T16:30:52.190Z,98963.63
2023-05-19T16:33:19.372Z,98966.53
2023-05-19T16:35:46.552Z,98971.09
2023-05-19T16:38:13.848Z,98965.06
2023-05-19T16:40:42.804Z,98961.00
2023-05-19T16:43:09.910Z,98971.50
2023-05-19T16:45:37.064Z,98965.25
2023-05-19T16:48:04.342Z,98970.31
2023-05-19T16:50:31.545Z,98965.66
2023-05-19T16:52:58.773Z,98966.09
2023-05-19T16:55:25.930Z,98962.09
2023-05-19T16:57:54.698Z,98971.50
2023-05-19T17:00:21.947Z,98970.69
2023-05-19T17:02:49.267Z,98963.00
2023-05-19T17:05:16.575Z,98966.09
2023-05-19T17:07:43.726Z,98964.44
2023-05-19T17:10:10.937Z,98963.16
2023-05-19T17:12:38.145Z,98963.97
2023-05-19T17:15:08.017Z,98957.72
2023-05-19T17:17:35.171Z,98957.97
2023-05-19T17:20:02.332Z,98957.28
2023-05-19T17:22:30.371Z,98956.53
2023-05-19T17:24:57.659Z,98962.72
2023-05-19T17:27:24.907Z,98961.53
2023-05-19T17:29:52.068Z,98964.34
2023-05-19T17:32:20.939Z,98958.47
2023-05-19T17:34:48.221Z,98954.28
2023-05-19T17:37:15.595Z,98966.47
2023-05-19T17:39:42.802Z,98969.16
2023-05-19T17:42:09.999Z,98959.75
2023-05-19T17:44:37.393Z,98970.34
2023-05-19T17:47:04.754Z,98966.09
2023-05-19T17:49:33.563Z,98966.28
2023-05-19T17:52:00.974Z,98964.16
2023-05-19T17:54:28.619Z,98965.38
2023-05-19T17:56:58.186Z,98962.41
2023-05-19T17:59:26.035Z,98968.44
2023-05-19T18:01:53.587Z,98964.00
2023-05-19T18:04:21.364Z,98960.28
2023-05-19T18:06:51.400Z,98961.06
2023-05-19T18:09:19.381Z,98961.06
2023-05-19T18:11:46.657Z,98961.81
2023-05-19T18:14:14.180Z,98959.94
2023-05-19T18:16:41.357Z,98965.56
2023-05-19T18:19:09.198Z,98968.63
2023-05-19T18:21:36.592Z,98969.47
2023-05-19T18:24:05.514Z,98969.06
2023-05-19T18:26:33.931Z,98965.91
2023-05-19T18:29:01.614Z,98963.41
2023-05-19T18:31:29.504Z,98962.41
2023-05-19T18:33:56.850Z,98960.69
2023-05-19T18:36:24.455Z,98967.13
2023-05-19T18:38:51.770Z,98956.31
2023-05-19T18:41:21.193Z,98964.63
2023-05-19T18:43:48.954Z,98959.78
2023-05-19T18:46:17.992Z,98962.41
2023-05-19T18:48:45.583Z,98962.56
2023-05-19T18:51:13.014Z,98958.19
2023-05-19T18:53:40.150Z,98965.47
2023-05-19T18:56:08.046Z,98967.50
2023-05-19T18:58:36.659Z,98963.41
2023-05-19T19:01:04.107Z,98959.84
2023-05-19T19:03:31.473Z,98962.75
2023-05-19T19:05:59.540Z,98963.78
2023-05-19T19:08:26.798Z,98962.50
2023-05-19T19:10:54.054Z,98954.19
2023-05-19T19:13:21.274Z,98963.34
2023-05-19T19:15:49.921Z,98953.75
2023-05-19T19:18:17.722Z,98958.13
2023-05-19T19:20:45.972Z,98957.03
2023-05-19T19:23:13.084Z,98951.44
2023-05-19T19:25:40.785Z,98965.94
2023-05-19T19:28:08.943Z,98957.72
2023-05-19T19:30:36.356Z,98963.25
2023-05-19T19:33:06.814Z,98966.78
2023-05-19T19:35:34.280Z,98966.34
2023-05-19T19:38:01.519Z,98957.78
2023-05-19T19:40:28.868Z,98964.03
2023-05-19T19:42:56.105Z,98959.44
2023-05-19T19:45:23.215Z,98962.16
2023-05-19T19:47:50.380Z,98959.66
2023-05-19T19:50:19.085Z,98967.09
2023-05-19T19:52:46.239Z,98963.75
2023-05-19T19:55:13.552Z,98969.78
2023-05-19T19:57:40.823Z,98969.34
2023-05-19T20:00:08.775Z,98976.88
2023-05-19T20:02:36.244Z,98968.50
2023-05-19T20:05:03.869Z,98972.31
2023-05-19T20:07:33.056Z,98974.38
2023-05-19T20:10:00.293Z,98972.06
2023-05-19T20:12:28.030Z,98980.22
2023-05-19T20:14:55.915Z,98979.91
2023-05-19T20:17:23.098Z,98977.09
2023-05-19T20:19:50.184Z,98981.84
2023-05-19T20:22:17.303Z,98972.16
2023-05-19T20:24:45.898Z,98974.09
2023-05-19T20:27:13.066Z,98973.97
2023-05-19T20:29:40.210Z,98984.59
2023-05-19T20:32:07.485Z,98979.38
2023-05-19T20:34:34.660Z,98982.78
2023-05-19T20:37:01.872Z,98980.97
2023-05-19T20:39:28.982Z,98989.66
2023-05-19T20:41:57.748Z,98990.16
2023-05-19T20:44:25.075Z,98987.88
2023-05-19T20:46:52.217Z,98992.88
2023-05-19T20:49:19.410Z,98985.16
2023-05-19T20:51:46.513Z,98986.44
2023-05-19T20:54:13.594Z,98988.31
2023-05-19T20:56:40.741Z,98990.44
2023-05-19T20:59:09.537Z,98989.81
2023-05-19T21:01:36.935Z,98992.72
2023-05-19T21:04:04.167Z,98998.16
2023-05-19T21:06:31.296Z,98997.50
2023-05-19T21:08:58.471Z,98995.38
2023-05-19T21:11:25.605Z,98997.56
2023-05-19T21:13:52.926Z,99002.78
2023-05-19T21:16:21.592Z,99000.84
2023-05-19T21:18:48.720Z,99006.13
2023-05-19T21:21:15.801Z,99003.91
2023-05-19T21:23:43.072Z,99001.75
2023-05-19T21:26:10.191Z,99006.19
2023-05-19T21:28:37.308Z,99003.09
2023-05-19T21:31:04.657Z,99002.72
2023-05-19T21:33:33.651Z,99002.09
2023-05-19T21:36:00.776Z,99001.28
2023-05-19T21:38:28.148Z,99004.19
2023-05-19T21:40:55.415Z,98998.56
2023-05-19T21:43:22.744Z,98999.88
2023-05-19T21:45:49.825Z,99000.69
2023-05-19T21:48:17.005Z,99003.00
2023-05-19T21:50:45.722Z,99013.38
2023-05-19T21:53:12.825Z,99013.16
2023-05-19T21:55:40.008Z,99008.03
2023-05-19T21:58:07.158Z,99012.13
2023-05-19T22:00:34.465Z,99009.06
2023-05-19T22:03:01.869Z,99017.22
2023-05-19T22:05:29.685Z,99011.34
2023-05-19T22:07:58.412Z,99016.00
2023-05-19T22:10:25.553Z,99021.19
2023-05-19T22:12:52.708Z,99018.84
2023-05-19T22:15:20.464Z,99020.97
2023-05-19T22:17:47.565Z,99018.69
2023-05-19T22:20:14.727Z,99021.78
2023-05-19T22:22:42.504Z,99019.72
2023-05-19T22:25:11.526Z,99027.63
2023-05-19T22:27:38.712Z,99020.19
2023-05-19T22:30:06.505Z,99029.13
2023-05-19T22:32:33.590Z,99029.31
2023-05-19T22:35:00.797Z,99027.44
2023-05-19T22:37:27.892Z,99033.91
2023-05-19T22:39:55.057Z,99030.16
2023-05-19T22:42:23.586Z,99029.31
2023-05-19T22:44:50.737Z,99024.41
2023-05-19T22:47:18.145Z,99028.06
2023-05-19T22:49:45.304Z,99030.78
2023-05-19T22:52:13.196Z,99029.13
2023-05-19T22:54:40.315Z,99036.44
2023-05-19T22:57:07.460Z,99031.03
2023-05-19T22:59:36.006Z,99034.19
2023-05-19T23:02:03.101Z,99043.06
2023-05-19T23:04:30.513Z,99045.25
2023-05-19T23:06:58.282Z,99032.75
2023-05-19T23:09:25.480Z,99035.50
2023-05-19T23:11:52.615Z,99033.44
2023-05-19T23:14:19.808Z,99034.69
2023-05-19T23:16:48.741Z,99030.34
2023-05-19T23:19:15.920Z,99036.31
2023-05-19T23:21:44.494Z,99035.81
2023-05-19T23:24:11.642Z,99037.09
2023-05-19T23:26:39.290Z,99038.97
2023-05-19T23:29:06.413Z,99033.63
2023-05-19T23:31:34.969Z,99039.72
2023-05-19T23:34:03.966Z,99037.31
2023-05-19T23:36:31.074Z,99035.88
2023-05-19T23:39:00.278Z,99034.22
2023-05-19T23:41:27.428Z,99035.13
2023-05-19T23:43:54.679Z,99038.84
2023-05-19T23:46:21.892Z,99044.91
2023-05-19T23:48:49.175Z,99042.59
2023-05-19T23:51:17.818Z,99039.50
2023-05-19T23:53:44.908Z,99045.34
2023-05-19T23:56:11.996Z,99046.38
2023-05-19T23:58:39.099Z,99050.94
